Portada
METAR-TAF:

METAR-TAF

Aeroports :

Dakar, Senegal

latitud: 14-44N, longitud: 017-30W, altitud: 27 m

Observació

L'informe es va fer fa 44 minuts, a les 11:00 UTC
Vent 4 kt del Nord-Est
Temperatura 28°C
Humitat 74%
Pressió 1013 hPa
Visibilitat 10 km o més
sense núvols per sota de 1500 mi sense presència de cumulonimbus.

METAR: GOOY 251100Z 04004KT CAVOK 28/23 Q1013

Hora: 11:44 (11:44 UTC)

Pronòstic

L'informe es va fer fa 14 minuts, a les 11:30 UTC
Pronòstic vàlid del 25 a les 12 UTC al 26 a les 18 UTC
Vent 8 kt del Sud
Visibilitat 10 km o més
Núvols disperses a una alçada de 1400 ft
Probabilitat 40% :
Temporalment
l' 25 a les 22 UTC al 26 a les 04 UTC
Visibilitat: 4000 m
Cel ennuvolat a una alçada de 1300 ft
Escasses núvols a una alçada de 2500 ft, Cumulonimbus.
tempesta, pluja

TAF: GOOY 251130Z 2512/2618 18008KT 9999 SCT014 PROB40 TEMPO 2522/2604 4000 TSRA BKN013 FEW025CB

Observacions i pronòstics meteorològics de més de 4000 aeroports (METAR i TAF).

Les estacions disponibles són els punts grocs i vermells al mapa.

Posi el ratolí al punt desitjat per veure el nom de l'estació.

Feu clic per veure les observacions i els pronòstics meteorològics.

Per canviar el mapa: feu clic els botons verds amb una creu de color negre per apropar; al botó verd amb un guió per allunyar la imatge; o en les fletxes verdes per a mapes adjacents.


METAR-TAF: